sensor_id;sensor_type;location;lat;lon;timestamp;pressure;altitude;pressure_sealevel;temperature;humidity
17936;BME280;9093;52.062;4.508;2023-03-16T00:01:44;101998.13;;;6.85;65.96
17936;BME280;9093;52.062;4.508;2023-03-16T00:04:25;101990.16;;;6.85;66.08
17936;BME280;9093;52.062;4.508;2023-03-16T00:07:07;101986.59;;;6.86;66.04
17936;BME280;9093;52.062;4.508;2023-03-16T00:09:48;101988.47;;;6.81;66.08
17936;BME280;9093;52.062;4.508;2023-03-16T00:12:28;101982.22;;;6.83;66.04
17936;BME280;9093;52.062;4.508;2023-03-16T00:15:10;101990.16;;;6.85;66.33
17936;BME280;9093;52.062;4.508;2023-03-16T00:17:50;101983.97;;;6.84;66.35
17936;BME280;9093;52.062;4.508;2023-03-16T00:20:31;101979.50;;;6.86;66.49
17936;BME280;9093;52.062;4.508;2023-03-16T00:23:12;101973.31;;;6.86;66.45
17936;BME280;9093;52.062;4.508;2023-03-16T00:25:58;101984.78;;;6.88;66.42
17936;BME280;9093;52.062;4.508;2023-03-16T00:28:38;101987.38;;;6.91;66.32
17936;BME280;9093;52.062;4.508;2023-03-16T00:31:19;101971.44;;;6.91;66.38
17936;BME280;9093;52.062;4.508;2023-03-16T00:34:00;101969.63;;;6.93;66.26
17936;BME280;9093;52.062;4.508;2023-03-16T00:36:41;101971.41;;;6.93;66.31
17936;BME280;9093;52.062;4.508;2023-03-16T00:39:22;101972.28;;;6.93;66.37
17936;BME280;9093;52.062;4.508;2023-03-16T00:42:02;101965.19;;;6.95;66.27
17936;BME280;9093;52.062;4.508;2023-03-16T00:44:43;101947.50;;;6.94;66.41
17936;BME280;9093;52.062;4.508;2023-03-16T00:47:26;101955.47;;;6.94;66.56
17936;BME280;9093;52.062;4.508;2023-03-16T00:50:07;101943.94;;;6.95;66.49
17936;BME280;9093;52.062;4.508;2023-03-16T00:52:48;101949.19;;;6.97;66.45
17936;BME280;9093;52.062;4.508;2023-03-16T00:55:28;101938.56;;;6.97;66.19
17936;BME280;9093;52.062;4.508;2023-03-16T00:58:08;101928.00;;;6.95;66.38
17936;BME280;9093;52.062;4.508;2023-03-16T01:00:49;101933.31;;;6.95;66.55
17936;BME280;9093;52.062;4.508;2023-03-16T01:03:33;101928.00;;;6.95;66.39
17936;BME280;9093;52.062;4.508;2023-03-16T01:06:15;101922.69;;;6.95;66.42
17936;BME280;9093;52.062;4.508;2023-03-16T01:08:56;101926.25;;;6.94;66.41
17936;BME280;9093;52.062;4.508;2023-03-16T01:11:37;101920.94;;;6.94;66.40
17936;BME280;9093;52.062;4.508;2023-03-16T01:14:17;101924.41;;;6.96;66.53
17936;BME280;9093;52.062;4.508;2023-03-16T01:16:58;101926.16;;;6.97;66.62
17936;BME280;9093;52.062;4.508;2023-03-16T01:19:38;101918.22;;;6.97;66.60
17936;BME280;9093;52.062;4.508;2023-03-16T01:22:20;101914.66;;;6.98;66.55
17936;BME280;9093;52.062;4.508;2023-03-16T01:25:00;101909.31;;;7.00;66.52
17936;BME280;9093;52.062;4.508;2023-03-16T01:27:41;101907.53;;;7.00;66.70
17936;BME280;9093;52.062;4.508;2023-03-16T01:30:22;101907.53;;;7.00;66.51
17936;BME280;9093;52.062;4.508;2023-03-16T01:33:02;101909.28;;;7.01;66.76
17936;BME280;9093;52.062;4.508;2023-03-16T01:38:34;101901.31;;;7.01;66.56
17936;BME280;9093;52.062;4.508;2023-03-16T01:41:14;101891.59;;;7.00;66.72
17936;BME280;9093;52.062;4.508;2023-03-16T01:43:55;101886.28;;;7.00;66.83
17936;BME280;9093;52.062;4.508;2023-03-16T01:46:37;101881.00;;;6.99;66.88
17936;BME280;9093;52.062;4.508;2023-03-16T01:49:22;101879.22;;;6.99;66.83
17936;BME280;9093;52.062;4.508;2023-03-16T01:52:09;101878.38;;;6.97;67.04
17936;BME280;9093;52.062;4.508;2023-03-16T01:54:56;101876.56;;;6.99;66.69
17936;BME280;9093;52.062;4.508;2023-03-16T01:57:39;101865.09;;;6.99;66.92
17936;BME280;9093;52.062;4.508;2023-03-16T02:00:22;101866.84;;;7.00;66.88
17936;BME280;9093;52.062;4.508;2023-03-16T02:03:14;101865.97;;;6.99;67.04
17936;BME280;9093;52.062;4.508;2023-03-16T02:06:02;101865.03;;;7.02;67.04
17936;BME280;9093;52.062;4.508;2023-03-16T02:08:46;101870.34;;;7.02;67.07
17936;BME280;9093;52.062;4.508;2023-03-16T02:11:28;101865.88;;;7.02;67.00
17936;BME280;9093;52.062;4.508;2023-03-16T02:14:10;101860.56;;;7.02;67.12
17936;BME280;9093;52.062;4.508;2023-03-16T02:16:51;101850.88;;;7.01;67.04
17936;BME280;9093;52.062;4.508;2023-03-16T02:19:43;101845.63;;;6.98;67.42
17936;BME280;9093;52.062;4.508;2023-03-16T02:22:26;101840.34;;;6.97;67.39
17936;BME280;9093;52.062;4.508;2023-03-16T02:25:08;101837.75;;;6.95;67.30
17936;BME280;9093;52.062;4.508;2023-03-16T02:28:03;101841.34;;;6.91;67.29
17936;BME280;9093;52.062;4.508;2023-03-16T02:30:47;101839.56;;;6.92;67.55
17936;BME280;9093;52.062;4.508;2023-03-16T02:33:29;101830.75;;;6.90;67.66
17936;BME280;9093;52.062;4.508;2023-03-16T02:36:13;101832.56;;;6.89;67.62
17936;BME280;9093;52.062;4.508;2023-03-16T02:38:53;101832.56;;;6.89;67.64
17936;BME280;9093;52.062;4.508;2023-03-16T02:41:33;101825.50;;;6.88;67.66
17936;BME280;9093;52.062;4.508;2023-03-16T02:44:20;101826.38;;;6.89;67.75
17936;BME280;9093;52.062;4.508;2023-03-16T02:47:06;101830.75;;;6.90;67.84
17936;BME280;9093;52.062;4.508;2023-03-16T02:49:50;101829.06;;;6.87;67.90
17936;BME280;9093;52.062;4.508;2023-03-16T02:52:34;101830.81;;;6.88;67.80
17936;BME280;9093;52.062;4.508;2023-03-16T02:55:15;101823.75;;;6.87;68.00
17936;BME280;9093;52.062;4.508;2023-03-16T02:57:55;101824.66;;;6.86;68.21
17936;BME280;9093;52.062;4.508;2023-03-16T03:00:36;101823.75;;;6.87;67.98
17936;BME280;9093;52.062;4.508;2023-03-16T03:03:17;101823.75;;;6.87;68.15
17936;BME280;9093;52.062;4.508;2023-03-16T03:05:57;101827.25;;;6.89;68.11
17936;BME280;9093;52.062;4.508;2023-03-16T03:08:38;101814.88;;;6.88;68.40
17936;BME280;9093;52.062;4.508;2023-03-16T03:11:18;101821.06;;;6.89;68.30
17936;BME280;9093;52.062;4.508;2023-03-16T03:13:59;101814.88;;;6.88;68.54
17936;BME280;9093;52.062;4.508;2023-03-16T03:16:39;101803.41;;;6.88;68.56
17936;BME280;9093;52.062;4.508;2023-03-16T03:19:19;101797.22;;;6.87;68.37
17936;BME280;9093;52.062;4.508;2023-03-16T03:22:01;101798.06;;;6.89;68.92
17936;BME280;9093;52.062;4.508;2023-03-16T03:24:43;101793.66;;;6.88;68.79
17936;BME280;9093;52.062;4.508;2023-03-16T03:27:24;101793.66;;;6.88;68.64
17936;BME280;9093;52.062;4.508;2023-03-16T03:30:04;101783.03;;;6.88;68.73
17936;BME280;9093;52.062;4.508;2023-03-16T03:32:45;101788.34;;;6.88;68.73
17936;BME280;9093;52.062;4.508;2023-03-16T03:35:26;101783.03;;;6.88;68.70
17936;BME280;9093;52.062;4.508;2023-03-16T03:38:06;101780.38;;;6.88;68.87
17936;BME280;9093;52.062;4.508;2023-03-16T03:40:49;101774.19;;;6.88;69.04
17936;BME280;9093;52.062;4.508;2023-03-16T03:43:30;101781.44;;;6.81;68.92
17936;BME280;9093;52.062;4.508;2023-03-16T03:46:10;101777.78;;;6.85;68.77
17936;BME280;9093;52.062;4.508;2023-03-16T03:48:51;101768.97;;;6.83;69.13
17936;BME280;9093;52.062;4.508;2023-03-16T03:51:32;101774.22;;;6.86;69.30
17936;BME280;9093;52.062;4.508;2023-03-16T03:54:12;101770.66;;;6.87;69.06
17936;BME280;9093;52.062;4.508;2023-03-16T03:56:53;101769.75;;;6.88;69.08
17936;BME280;9093;52.062;4.508;2023-03-16T03:59:33;101773.28;;;6.89;69.37
17936;BME280;9093;52.062;4.508;2023-03-16T04:02:14;101768.00;;;6.87;69.37
17936;BME280;9093;52.062;4.508;2023-03-16T04:04:55;101766.19;;;6.89;69.52
17936;BME280;9093;52.062;4.508;2023-03-16T04:07:35;101766.13;;;6.91;69.31
17936;BME280;9093;52.062;4.508;2023-03-16T04:10:15;101765.25;;;6.90;69.32
17936;BME280;9093;52.062;4.508;2023-03-16T04:12:56;101765.25;;;6.90;69.30
17936;BME280;9093;52.062;4.508;2023-03-16T04:15:37;101760.84;;;6.91;69.44
17936;BME280;9093;52.062;4.508;2023-03-16T04:18:17;101755.53;;;6.91;69.40
17936;BME280;9093;52.062;4.508;2023-03-16T04:20:58;101751.19;;;6.88;69.72
17936;BME280;9093;52.062;4.508;2023-03-16T04:23:38;101761.72;;;6.91;69.49
17936;BME280;9093;52.062;4.508;2023-03-16T04:26:20;101745.81;;;6.90;69.67
17936;BME280;9093;52.062;4.508;2023-03-16T04:29:00;101744.91;;;6.91;69.48
17936;BME280;9093;52.062;4.508;2023-03-16T04:31:43;101752.88;;;6.91;69.70
17936;BME280;9093;52.062;4.508;2023-03-16T04:34:23;101740.47;;;6.91;69.79
17936;BME280;9093;52.062;4.508;2023-03-16T04:37:04;101743.16;;;6.90;69.85
17936;BME280;9093;52.062;4.508;2023-03-16T04:39:44;101736.06;;;6.90;70.06
17936;BME280;9093;52.062;4.508;2023-03-16T04:42:24;101733.41;;;6.90;69.72
17936;BME280;9093;52.062;4.508;2023-03-16T04:45:05;101733.41;;;6.90;69.98
17936;BME280;9093;52.062;4.508;2023-03-16T04:47:45;101728.09;;;6.90;69.94
17936;BME280;9093;52.062;4.508;2023-03-16T04:50:26;101731.69;;;6.89;70.00
17936;BME280;9093;52.062;4.508;2023-03-16T04:53:06;101729.94;;;6.88;70.11
17936;BME280;9093;52.062;4.508;2023-03-16T04:55:46;101723.75;;;6.88;69.91
17936;BME280;9093;52.062;4.508;2023-03-16T04:58:27;101722.88;;;6.87;70.29
17936;BME280;9093;52.062;4.508;2023-03-16T05:01:07;101721.13;;;6.86;70.35
17936;BME280;9093;52.062;4.508;2023-03-16T05:03:47;101714.94;;;6.85;70.13
17936;BME280;9093;52.062;4.508;2023-03-16T05:06:28;101714.06;;;6.85;70.53
17936;BME280;9093;52.062;4.508;2023-03-16T05:09:10;101699.06;;;6.84;70.31
17936;BME280;9093;52.062;4.508;2023-03-16T05:11:50;101712.31;;;6.84;70.69
17936;BME280;9093;52.062;4.508;2023-03-16T05:14:30;101698.19;;;6.83;70.36
17936;BME280;9093;52.062;4.508;2023-03-16T05:17:11;101709.66;;;6.84;70.36
17936;BME280;9093;52.062;4.508;2023-03-16T05:19:53;101704.44;;;6.81;70.64
17936;BME280;9093;52.062;4.508;2023-03-16T05:22:34;101703.59;;;6.79;70.56
17936;BME280;9093;52.062;4.508;2023-03-16T05:25:15;101701.84;;;6.78;70.62
17936;BME280;9093;52.062;4.508;2023-03-16T05:27:56;101693.97;;;6.76;70.65
17936;BME280;9093;52.062;4.508;2023-03-16T05:30:36;101697.50;;;6.75;70.93
17936;BME280;9093;52.062;4.508;2023-03-16T05:33:17;101686.03;;;6.75;71.03
17936;BME280;9093;52.062;4.508;2023-03-16T05:35:58;101696.63;;;6.75;71.10
17936;BME280;9093;52.062;4.508;2023-03-16T05:38:38;101703.75;;;6.73;70.97
17936;BME280;9093;52.062;4.508;2023-03-16T05:41:19;101687.84;;;6.73;70.94
17936;BME280;9093;52.062;4.508;2023-03-16T05:44:00;101683.41;;;6.73;71.05
17936;BME280;9093;52.062;4.508;2023-03-16T05:46:41;101684.28;;;6.74;71.13
17936;BME280;9093;52.062;4.508;2023-03-16T05:49:21;101684.28;;;6.74;71.34
17936;BME280;9093;52.062;4.508;2023-03-16T05:52:02;101684.28;;;6.74;71.44
17936;BME280;9093;52.062;4.508;2023-03-16T05:54:43;101678.97;;;6.74;71.33
17936;BME280;9093;52.062;4.508;2023-03-16T05:57:23;101678.97;;;6.74;71.49
17936;BME280;9093;52.062;4.508;2023-03-16T06:00:05;101684.28;;;6.74;71.35
17936;BME280;9093;52.062;4.508;2023-03-16T06:02:54;101684.28;;;6.74;71.31
17936;BME280;9093;52.062;4.508;2023-03-16T06:05:34;101681.63;;;6.74;71.38
17936;BME280;9093;52.062;4.508;2023-03-16T06:08:15;101694.88;;;6.74;71.46
17936;BME280;9093;52.062;4.508;2023-03-16T06:10:55;101682.53;;;6.73;71.54
17936;BME280;9093;52.062;4.508;2023-03-16T06:13:36;101687.84;;;6.73;71.65
17936;BME280;9093;52.062;4.508;2023-03-16T06:16:17;101667.50;;;6.72;71.64
17936;BME280;9093;52.062;4.508;2023-03-16T06:18:57;101671.91;;;6.73;71.67
17936;BME280;9093;52.062;4.508;2023-03-16T06:21:38;101671.91;;;6.73;71.85
17936;BME280;9093;52.062;4.508;2023-03-16T06:24:18;101669.25;;;6.73;71.99
17936;BME280;9093;52.062;4.508;2023-03-16T06:26:58;101675.47;;;6.72;72.02
17936;BME280;9093;52.062;4.508;2023-03-16T06:29:39;101666.59;;;6.73;72.18
17936;BME280;9093;52.062;4.508;2023-03-16T06:32:19;101671.91;;;6.73;71.92
17936;BME280;9093;52.062;4.508;2023-03-16T06:35:01;101663.94;;;6.73;71.88
17936;BME280;9093;52.062;4.508;2023-03-16T06:37:43;101657.63;;;6.77;72.18
17936;BME280;9093;52.062;4.508;2023-03-16T06:40:24;101650.53;;;6.79;72.37
17936;BME280;9093;52.062;4.508;2023-03-16T06:43:04;101650.47;;;6.82;72.09
17936;BME280;9093;52.062;4.508;2023-03-16T06:45:45;101645.06;;;6.85;72.11
17936;BME280;9093;52.062;4.508;2023-03-16T06:48:26;101645.03;;;6.86;72.09
17936;BME280;9093;52.062;4.508;2023-03-16T06:51:06;101645.00;;;6.88;72.33
17936;BME280;9093;52.062;4.508;2023-03-16T06:53:46;101648.47;;;6.90;72.08
17936;BME280;9093;52.062;4.508;2023-03-16T06:56:27;101645.78;;;6.92;72.29
17936;BME280;9093;52.062;4.508;2023-03-16T06:59:07;101652.84;;;6.93;72.37
17936;BME280;9093;52.062;4.508;2023-03-16T07:01:48;101643.09;;;6.93;72.26
17936;BME280;9093;52.062;4.508;2023-03-16T07:04:29;101635.97;;;6.95;72.14
17936;BME280;9093;52.062;4.508;2023-03-16T07:07:10;101635.97;;;6.95;72.60
17936;BME280;9093;52.062;4.508;2023-03-16T07:09:50;101636.78;;;6.97;72.40
17936;BME280;9093;52.062;4.508;2023-03-16T07:12:31;101634.06;;;7.00;72.35
17936;BME280;9093;52.062;4.508;2023-03-16T07:15:12;101636.56;;;7.05;72.47
17936;BME280;9093;52.062;4.508;2023-03-16T07:17:52;101634.69;;;7.08;72.31
17936;BME280;9093;52.062;4.508;2023-03-16T07:20:33;101631.06;;;7.12;72.54
17936;BME280;9093;52.062;4.508;2023-03-16T07:23:14;101626.59;;;7.14;72.67
17936;BME280;9093;52.062;4.508;2023-03-16T07:25:54;101622.94;;;7.18;72.76
17936;BME280;9093;52.062;4.508;2023-03-16T07:28:35;101628.16;;;7.21;72.61
17936;BME280;9093;52.062;4.508;2023-03-16T07:31:15;101626.28;;;7.25;72.59
17936;BME280;9093;52.062;4.508;2023-03-16T07:33:55;101625.38;;;7.26;72.79
17936;BME280;9093;52.062;4.508;2023-03-16T07:36:36;101654.31;;;7.37;72.78
17936;BME280;9093;52.062;4.508;2023-03-16T07:39:17;101643.59;;;7.40;72.81
17936;BME280;9093;52.062;4.508;2023-03-16T07:41:57;101636.38;;;7.45;72.60
17936;BME280;9093;52.062;4.508;2023-03-16T07:44:38;101636.25;;;7.48;72.72
17936;BME280;9093;52.062;4.508;2023-03-16T07:47:18;101629.13;;;7.50;72.53
17936;BME280;9093;52.062;4.508;2023-03-16T07:49:59;101633.50;;;7.52;72.73
17936;BME280;9093;52.062;4.508;2023-03-16T07:52:40;101635.19;;;7.55;72.68
17936;BME280;9093;52.062;4.508;2023-03-16T07:55:20;101640.47;;;7.56;72.78
17936;BME280;9093;52.062;4.508;2023-03-16T07:58:01;101635.97;;;7.58;72.84
17936;BME280;9093;52.062;4.508;2023-03-16T08:00:44;101636.78;;;7.60;72.71
17936;BME280;9093;52.062;4.508;2023-03-16T08:03:25;101634.84;;;7.65;72.54
17936;BME280;9093;52.062;4.508;2023-03-16T08:06:05;101643.59;;;7.71;72.81
17936;BME280;9093;52.062;4.508;2023-03-16T08:08:46;101642.53;;;7.76;72.61
17936;BME280;9093;52.062;4.508;2023-03-16T08:11:26;101640.69;;;7.78;72.66
17936;BME280;9093;52.062;4.508;2023-03-16T08:14:07;101622.91;;;7.80;72.63
17936;BME280;9093;52.062;4.508;2023-03-16T08:16:47;101636.13;;;7.83;72.71
17936;BME280;9093;52.062;4.508;2023-03-16T08:19:28;101637.81;;;7.86;72.77
17936;BME280;9093;52.062;4.508;2023-03-16T08:22:09;101638.59;;;7.89;72.49
17936;BME280;9093;52.062;4.508;2023-03-16T08:24:49;101637.66;;;7.90;72.85
17936;BME280;9093;52.062;4.508;2023-03-16T08:27:31;101628.84;;;7.90;72.76
17936;BME280;9093;52.062;4.508;2023-03-16T08:30:12;101626.13;;;7.91;72.68
17936;BME280;9093;52.062;4.508;2023-03-16T08:32:52;101625.16;;;7.94;72.75
17936;BME280;9093;52.062;4.508;2023-03-16T08:35:33;101628.59;;;7.97;72.80
17936;BME280;9093;52.062;4.508;2023-03-16T08:38:14;101617.94;;;7.97;72.91
17936;BME280;9093;52.062;4.508;2023-03-16T08:40:55;101624.78;;;8.06;72.58
17936;BME280;9093;52.062;4.508;2023-03-16T08:43:36;101614.81;;;8.13;72.68
17936;BME280;9093;52.062;4.508;2023-03-16T08:46:16;101625.22;;;8.20;72.60
17936;BME280;9093;52.062;4.508;2023-03-16T08:48:57;101612.50;;;8.30;72.42
17936;BME280;9093;52.062;4.508;2023-03-16T08:51:37;101614.06;;;8.37;72.43
17936;BME280;9093;52.062;4.508;2023-03-16T08:54:17;101613.78;;;8.46;72.85
17936;BME280;9093;52.062;4.508;2023-03-16T08:56:58;101611.72;;;8.54;72.65
17936;BME280;9093;52.062;4.508;2023-03-16T08:59:38;101600.81;;;8.62;72.76
17936;BME280;9093;52.062;4.508;2023-03-16T09:02:18;101609.38;;;8.71;72.60
17936;BME280;9093;52.062;4.508;2023-03-16T09:04:59;101595.88;;;8.77;72.71
17936;BME280;9093;52.062;4.508;2023-03-16T09:07:40;101610.81;;;8.81;72.64
17936;BME280;9093;52.062;4.508;2023-03-16T09:10:21;101594.72;;;8.84;72.54
17936;BME280;9093;52.062;4.508;2023-03-16T09:13:02;101586.56;;;8.89;72.71
17936;BME280;9093;52.062;4.508;2023-03-16T09:15:42;101586.53;;;8.91;72.50
17936;BME280;9093;52.062;4.508;2023-03-16T09:18:23;101571.34;;;8.93;72.71
17936;BME280;9093;52.062;4.508;2023-03-16T09:21:07;101599.63;;;8.97;72.57
17936;BME280;9093;52.062;4.508;2023-03-16T09:23:47;101596.13;;;8.95;72.69
17936;BME280;9093;52.062;4.508;2023-03-16T09:26:28;101597.88;;;8.96;72.38
17936;BME280;9093;52.062;4.508;2023-03-16T09:29:09;101600.50;;;8.97;72.23
17936;BME280;9093;52.062;4.508;2023-03-16T09:31:49;101592.44;;;8.99;72.35
17936;BME280;9093;52.062;4.508;2023-03-16T09:34:29;101594.19;;;9.00;72.38
17936;BME280;9093;52.062;4.508;2023-03-16T09:37:10;101590.50;;;9.04;72.05
17936;BME280;9093;52.062;4.508;2023-03-16T09:39:50;101586.78;;;9.08;72.00
17936;BME280;9093;52.062;4.508;2023-03-16T09:42:39;101591.91;;;9.14;71.82
17936;BME280;9093;52.062;4.508;2023-03-16T09:45:51;101575.69;;;9.20;71.81
17936;BME280;9093;52.062;4.508;2023-03-16T09:48:37;101588.47;;;9.35;71.91
17936;BME280;9093;52.062;4.508;2023-03-16T09:54:30;101574.44;;;9.53;71.62
17936;BME280;9093;52.062;4.508;2023-03-16T09:57:30;101582.91;;;9.64;71.42
17936;BME280;9093;52.062;4.508;2023-03-16T10:00:15;101592.22;;;9.76;71.61
17936;BME280;9093;52.062;4.508;2023-03-16T10:06:03;101574.47;;;9.98;71.25
17936;BME280;9093;52.062;4.508;2023-03-16T10:08:52;101574.84;;;10.11;71.31
17936;BME280;9093;52.062;4.508;2023-03-16T10:11:40;101573.50;;;10.23;71.42
17936;BME280;9093;52.062;4.508;2023-03-16T10:17:25;101568.03;;;10.47;70.94
17936;BME280;9093;52.062;4.508;2023-03-16T10:20:20;101566.75;;;10.56;71.15
17936;BME280;9093;52.062;4.508;2023-03-16T10:23:12;101572.59;;;10.66;71.03
17936;BME280;9093;52.062;4.508;2023-03-16T10:25:56;101556.16;;;10.75;71.18
17936;BME280;9093;52.062;4.508;2023-03-16T10:28:36;101562.84;;;10.85;71.07
17936;BME280;9093;52.062;4.508;2023-03-16T10:31:20;101542.81;;;10.95;70.81
17936;BME280;9093;52.062;4.508;2023-03-16T10:34:04;101556.59;;;11.06;70.80
17936;BME280;9093;52.062;4.508;2023-03-16T10:36:45;101551.75;;;11.14;70.41
17936;BME280;9093;52.062;4.508;2023-03-16T10:39:35;101542.50;;;11.21;70.45
17936;BME280;9093;52.062;4.508;2023-03-16T10:42:18;101535.72;;;11.33;70.25
17936;BME280;9093;52.062;4.508;2023-03-16T10:45:00;101534.44;;;11.42;70.28
17936;BME280;9093;52.062;4.508;2023-03-16T10:47:41;101523.47;;;11.48;70.33
17936;BME280;9093;52.062;4.508;2023-03-16T10:50:23;101521.44;;;11.53;70.01
17936;BME280;9093;52.062;4.508;2023-03-16T10:53:18;101519.41;;;11.58;69.94
17936;BME280;9093;52.062;4.508;2023-03-16T10:56:07;101515.38;;;11.68;69.92
17936;BME280;9093;52.062;4.508;2023-03-16T10:58:48;101511.50;;;11.75;69.84
17936;BME280;9093;52.062;4.508;2023-03-16T11:01:30;101505.00;;;11.81;69.47
17936;BME280;9093;52.062;4.508;2023-03-16T11:04:13;101512.66;;;11.88;69.42
17936;BME280;9093;52.062;4.508;2023-03-16T11:06:56;101509.75;;;11.93;69.48
17936;BME280;9093;52.062;4.508;2023-03-16T11:09:36;101511.31;;;11.97;69.27
17936;BME280;9093;52.062;4.508;2023-03-16T11:12:30;101510.38;;;11.98;69.27
17936;BME280;9093;52.062;4.508;2023-03-16T11:15:12;101508.22;;;12.06;69.13
17936;BME280;9093;52.062;4.508;2023-03-16T11:17:53;101508.91;;;12.09;69.04
17936;BME280;9093;52.062;4.508;2023-03-16T11:20:34;101514.91;;;12.15;69.15
17936;BME280;9093;52.062;4.508;2023-03-16T11:23:16;101511.16;;;12.19;69.01
17936;BME280;9093;52.062;4.508;2023-03-16T11:25:57;101499.94;;;12.11;69.56
17936;BME280;9093;52.062;4.508;2023-03-16T11:28:45;101500.44;;;12.19;68.82
17936;BME280;9093;52.062;4.508;2023-03-16T11:31:38;101477.91;;;12.23;68.99
17936;BME280;9093;52.062;4.508;2023-03-16T11:34:27;101487.50;;;12.27;68.53
17936;BME280;9093;52.062;4.508;2023-03-16T11:37:26;101482.81;;;12.32;68.24
17936;BME280;9093;52.062;4.508;2023-03-16T11:40:28;101481.38;;;12.42;68.27
17936;BME280;9093;52.062;4.508;2023-03-16T11:58:34;101470.22;;;13.01;67.38
17936;BME280;9093;52.062;4.508;2023-03-16T12:07:38;101465.13;;;13.45;66.66
17936;BME280;9093;52.062;4.508;2023-03-16T12:16:59;101448.78;;;13.65;65.92
17936;BME280;9093;52.062;4.508;2023-03-16T12:20:06;101437.50;;;13.75;65.70
17936;BME280;9093;52.062;4.508;2023-03-16T12:23:11;101446.00;;;13.83;65.25
17936;BME280;9093;52.062;4.508;2023-03-16T12:25:55;101445.44;;;13.92;64.67
17936;BME280;9093;52.062;4.508;2023-03-16T12:28:39;101430.63;;;14.00;64.67
17936;BME280;9093;52.062;4.508;2023-03-16T12:31:48;101413.28;;;14.06;64.54
17936;BME280;9093;52.062;4.508;2023-03-16T12:34:49;101414.50;;;14.16;64.15
17936;BME280;9093;52.062;4.508;2023-03-16T12:37:44;101421.91;;;14.27;63.92
17936;BME280;9093;52.062;4.508;2023-03-16T12:40:33;101422.06;;;14.39;63.60
17936;BME280;9093;52.062;4.508;2023-03-16T12:46:13;101408.66;;;14.54;63.04
17936;BME280;9093;52.062;4.508;2023-03-16T12:48:58;101410.97;;;14.60;62.72
17936;BME280;9093;52.062;4.508;2023-03-16T12:51:42;101394.72;;;14.61;62.31
17936;BME280;9093;52.062;4.508;2023-03-16T12:54:24;101405.22;;;14.66;62.60
17936;BME280;9093;52.062;4.508;2023-03-16T12:57:06;101403.00;;;14.72;62.09
17936;BME280;9093;52.062;4.508;2023-03-16T12:59:48;101398.78;;;14.82;61.85
17936;BME280;9093;52.062;4.508;2023-03-16T13:02:41;101391.97;;;14.91;61.41
17936;BME280;9093;52.062;4.508;2023-03-16T13:05:36;101393.31;;;14.98;61.49
17936;BME280;9093;52.062;4.508;2023-03-16T13:08:24;101386.56;;;15.05;61.21
17936;BME280;9093;52.062;4.508;2023-03-16T13:11:06;101378.69;;;15.16;60.90
17936;BME280;9093;52.062;4.508;2023-03-16T13:13:50;101363.47;;;15.29;60.66
17936;BME280;9093;52.062;4.508;2023-03-16T13:16:36;101370.16;;;15.37;60.16
17936;BME280;9093;52.062;4.508;2023-03-16T13:19:27;101366.41;;;15.39;59.98
17936;BME280;9093;52.062;4.508;2023-03-16T13:22:28;101375.03;;;15.44;60.28
17936;BME280;9093;52.062;4.508;2023-03-16T13:28:04;101357.63;;;15.64;58.97
17936;BME280;9093;52.062;4.508;2023-03-16T13:30:46;101348.06;;;15.73;59.00
17936;BME280;9093;52.062;4.508;2023-03-16T13:33:30;101349.16;;;15.83;58.44
17936;BME280;9093;52.062;4.508;2023-03-16T13:36:12;101356.72;;;15.90;58.36
17936;BME280;9093;52.062;4.508;2023-03-16T13:39:05;101351.97;;;15.94;59.59
17936;BME280;9093;52.062;4.508;2023-03-16T13:42:03;101352.13;;;15.65;59.78
17936;BME280;9093;52.062;4.508;2023-03-16T13:44:55;101367.63;;;15.21;60.09
17936;BME280;9093;52.062;4.508;2023-03-16T13:47:35;101362.47;;;14.89;60.46
17936;BME280;9093;52.062;4.508;2023-03-16T13:50:17;101356.06;;;14.64;60.44
17936;BME280;9093;52.062;4.508;2023-03-16T13:53:00;101347.50;;;14.43;60.75
17936;BME280;9093;52.062;4.508;2023-03-16T13:55:44;101352.13;;;14.25;60.82
17936;BME280;9093;52.062;4.508;2023-03-16T13:58:31;101336.00;;;14.11;60.03
17936;BME280;9093;52.062;4.508;2023-03-16T14:04:09;101335.00;;;13.98;59.63
17936;BME280;9093;52.062;4.508;2023-03-16T14:07:01;101317.38;;;13.94;59.11
17936;BME280;9093;52.062;4.508;2023-03-16T14:09:43;101325.88;;;13.86;59.01
17936;BME280;9093;52.062;4.508;2023-03-16T14:12:25;101325.75;;;13.74;59.37
17936;BME280;9093;52.062;4.508;2023-03-16T14:15:07;101322.88;;;13.77;58.64
17936;BME280;9093;52.062;4.508;2023-03-16T14:17:49;101321.75;;;13.81;58.26
17936;BME280;9093;52.062;4.508;2023-03-16T14:20:30;101318.53;;;13.90;57.96
17936;BME280;9093;52.062;4.508;2023-03-16T14:23:40;101314.88;;;14.05;57.59
17936;BME280;9093;52.062;4.508;2023-03-16T14:26:22;101314.50;;;14.11;57.64
17936;BME280;9093;52.062;4.508;2023-03-16T14:29:09;101315.66;;;14.07;57.60
17936;BME280;9093;52.062;4.508;2023-03-16T14:31:54;101312.13;;;14.06;57.56
17936;BME280;9093;52.062;4.508;2023-03-16T14:34:36;101315.22;;;14.15;57.25
17936;BME280;9093;52.062;4.508;2023-03-16T14:37:18;101310.72;;;14.15;57.24
17936;BME280;9093;52.062;4.508;2023-03-16T14:40:07;101306.66;;;14.08;57.34
17936;BME280;9093;52.062;4.508;2023-03-16T14:43:01;101303.50;;;14.16;57.04
17936;BME280;9093;52.062;4.508;2023-03-16T14:45:42;101287.19;;;14.19;56.99
17936;BME280;9093;52.062;4.508;2023-03-16T14:48:23;101292.69;;;14.31;56.67
17936;BME280;9093;52.062;4.508;2023-03-16T14:51:04;101282.72;;;14.33;56.57
17936;BME280;9093;52.062;4.508;2023-03-16T14:53:45;101282.88;;;14.30;56.48
17936;BME280;9093;52.062;4.508;2023-03-16T14:56:31;101280.78;;;14.21;56.87
17936;BME280;9093;52.062;4.508;2023-03-16T14:59:13;101271.94;;;14.19;56.51
17936;BME280;9093;52.062;4.508;2023-03-16T15:01:54;101271.16;;;14.17;56.79
17936;BME280;9093;52.062;4.508;2023-03-16T15:04:35;101276.00;;;14.26;56.77
17936;BME280;9093;52.062;4.508;2023-03-16T15:07:21;101274.81;;;14.30;56.22
17936;BME280;9093;52.062;4.508;2023-03-16T15:10:20;101280.19;;;14.30;56.31
17936;BME280;9093;52.062;4.508;2023-03-16T15:13:01;101268.41;;;14.19;56.39
17936;BME280;9093;52.062;4.508;2023-03-16T15:15:52;101264.66;;;14.07;56.35
17936;BME280;9093;52.062;4.508;2023-03-16T15:18:33;101261.47;;;14.00;56.69
17936;BME280;9093;52.062;4.508;2023-03-16T15:21:19;101269.63;;;13.99;56.65